sensor_id;sensor_type;location;lat;lon;timestamp;P1;durP1;ratioP1;P2;durP2;ratioP2
75488;SDS011;64069;46.396;48.102;2023-09-12T00:02:24;10.77;;;5.75;;
75488;SDS011;64069;46.396;48.102;2023-09-12T00:04:50;13.05;;;6.45;;
75488;SDS011;64069;46.396;48.102;2023-09-12T00:07:16;17.75;;;6.60;;
75488;SDS011;64069;46.396;48.102;2023-09-12T00:09:42;14.65;;;5.97;;
75488;SDS011;64069;46.396;48.102;2023-09-12T00:12:08;12.30;;;6.35;;
75488;SDS011;64069;46.396;48.102;2023-09-12T00:14:34;10.02;;;5.57;;
75488;SDS011;64069;46.396;48.102;2023-09-12T00:17:00;11.75;;;5.70;;
75488;SDS011;64069;46.396;48.102;2023-09-12T00:19:26;12.35;;;6.05;;
75488;SDS011;64069;46.396;48.102;2023-09-12T00:21:52;11.95;;;5.25;;
75488;SDS011;64069;46.396;48.102;2023-09-12T00:24:18;10.63;;;6.53;;
75488;SDS011;64069;46.396;48.102;2023-09-12T00:26:44;12.35;;;6.10;;
75488;SDS011;64069;46.396;48.102;2023-09-12T00:29:10;13.85;;;6.15;;
75488;SDS011;64069;46.396;48.102;2023-09-12T00:31:36;21.52;;;6.28;;
75488;SDS011;64069;46.396;48.102;2023-09-12T00:34:02;10.32;;;5.72;;
75488;SDS011;64069;46.396;48.102;2023-09-12T00:36:28;12.55;;;5.93;;
75488;SDS011;64069;46.396;48.102;2023-09-12T00:38:54;22.23;;;5.38;;
75488;SDS011;64069;46.396;48.102;2023-09-12T00:41:19;11.90;;;6.05;;
75488;SDS011;64069;46.396;48.102;2023-09-12T00:43:45;8.52;;;5.68;;
75488;SDS011;64069;46.396;48.102;2023-09-12T00:46:13;14.88;;;6.43;;
75488;SDS011;64069;46.396;48.102;2023-09-12T00:48:43;10.90;;;6.88;;
75488;SDS011;64069;46.396;48.102;2023-09-12T00:51:09;8.77;;;5.90;;
75488;SDS011;64069;46.396;48.102;2023-09-12T00:53:36;11.38;;;6.00;;
75488;SDS011;64069;46.396;48.102;2023-09-12T00:56:02;10.13;;;6.18;;
75488;SDS011;64069;46.396;48.102;2023-09-12T00:58:28;13.40;;;6.13;;
75488;SDS011;64069;46.396;48.102;2023-09-12T01:00:54;15.70;;;6.47;;
75488;SDS011;64069;46.396;48.102;2023-09-12T01:03:22;10.50;;;5.85;;
75488;SDS011;64069;46.396;48.102;2023-09-12T01:05:48;11.00;;;5.95;;
75488;SDS011;64069;46.396;48.102;2023-09-12T01:08:14;12.68;;;6.80;;
75488;SDS011;64069;46.396;48.102;2023-09-12T01:10:40;25.25;;;5.88;;
75488;SDS011;64069;46.396;48.102;2023-09-12T01:13:11;11.93;;;5.80;;
75488;SDS011;64069;46.396;48.102;2023-09-12T01:15:40;10.48;;;5.60;;
75488;SDS011;64069;46.396;48.102;2023-09-12T01:18:07;9.15;;;6.10;;
75488;SDS011;64069;46.396;48.102;2023-09-12T01:20:34;15.60;;;5.63;;
75488;SDS011;64069;46.396;48.102;2023-09-12T01:23:15;12.02;;;5.88;;
75488;SDS011;64069;46.396;48.102;2023-09-12T01:28:22;15.00;;;6.00;;
75488;SDS011;64069;46.396;48.102;2023-09-12T01:30:52;17.63;;;5.00;;
75488;SDS011;64069;46.396;48.102;2023-09-12T01:33:20;14.45;;;5.47;;
75488;SDS011;64069;46.396;48.102;2023-09-12T01:35:46;9.25;;;5.15;;
75488;SDS011;64069;46.396;48.102;2023-09-12T01:38:13;8.98;;;5.20;;
75488;SDS011;64069;46.396;48.102;2023-09-12T01:40:44;11.07;;;5.55;;
75488;SDS011;64069;46.396;48.102;2023-09-12T01:43:18;11.82;;;5.70;;
75488;SDS011;64069;46.396;48.102;2023-09-12T01:45:47;7.95;;;4.78;;
75488;SDS011;64069;46.396;48.102;2023-09-12T01:48:18;7.95;;;4.60;;
75488;SDS011;64069;46.396;48.102;2023-09-12T01:50:46;11.02;;;4.78;;
75488;SDS011;64069;46.396;48.102;2023-09-12T01:53:13;12.38;;;5.13;;
75488;SDS011;64069;46.396;48.102;2023-09-12T01:55:42;15.18;;;5.55;;
75488;SDS011;64069;46.396;48.102;2023-09-12T01:58:10;10.20;;;5.18;;
75488;SDS011;64069;46.396;48.102;2023-09-12T02:00:37;9.65;;;5.28;;
75488;SDS011;64069;46.396;48.102;2023-09-12T02:03:05;9.27;;;5.03;;
75488;SDS011;64069;46.396;48.102;2023-09-12T02:05:31;10.98;;;5.22;;
75488;SDS011;64069;46.396;48.102;2023-09-12T02:07:57;11.50;;;5.45;;
75488;SDS011;64069;46.396;48.102;2023-09-12T02:10:27;14.38;;;5.30;;
75488;SDS011;64069;46.396;48.102;2023-09-12T02:12:53;11.35;;;5.60;;
75488;SDS011;64069;46.396;48.102;2023-09-12T02:15:19;10.13;;;5.70;;
75488;SDS011;64069;46.396;48.102;2023-09-12T02:17:45;8.18;;;4.60;;
75488;SDS011;64069;46.396;48.102;2023-09-12T02:20:11;8.43;;;5.00;;
75488;SDS011;64069;46.396;48.102;2023-09-12T02:22:37;11.38;;;5.05;;
75488;SDS011;64069;46.396;48.102;2023-09-12T02:25:03;8.95;;;5.25;;
75488;SDS011;64069;46.396;48.102;2023-09-12T02:27:31;9.25;;;5.00;;
75488;SDS011;64069;46.396;48.102;2023-09-12T02:29:56;16.70;;;5.68;;
75488;SDS011;64069;46.396;48.102;2023-09-12T02:32:22;14.57;;;6.90;;
75488;SDS011;64069;46.396;48.102;2023-09-12T02:34:48;12.57;;;7.00;;
75488;SDS011;64069;46.396;48.102;2023-09-12T02:37:14;11.82;;;6.07;;
75488;SDS011;64069;46.396;48.102;2023-09-12T02:39:41;13.80;;;6.63;;
75488;SDS011;64069;46.396;48.102;2023-09-12T02:42:07;11.80;;;6.05;;
75488;SDS011;64069;46.396;48.102;2023-09-12T02:44:33;18.25;;;8.07;;
75488;SDS011;64069;46.396;48.102;2023-09-12T02:46:59;18.50;;;8.65;;
75488;SDS011;64069;46.396;48.102;2023-09-12T02:49:25;23.63;;;10.02;;
75488;SDS011;64069;46.396;48.102;2023-09-12T02:51:51;16.27;;;7.40;;
75488;SDS011;64069;46.396;48.102;2023-09-12T02:54:16;24.13;;;9.13;;
75488;SDS011;64069;46.396;48.102;2023-09-12T02:56:43;18.42;;;8.60;;
75488;SDS011;64069;46.396;48.102;2023-09-12T02:59:09;26.95;;;8.27;;
75488;SDS011;64069;46.396;48.102;2023-09-12T03:01:35;26.77;;;9.20;;
75488;SDS011;64069;46.396;48.102;2023-09-12T03:04:00;37.08;;;14.98;;
75488;SDS011;64069;46.396;48.102;2023-09-12T03:06:27;43.83;;;16.20;;
75488;SDS011;64069;46.396;48.102;2023-09-12T03:08:55;31.30;;;13.10;;
75488;SDS011;64069;46.396;48.102;2023-09-12T03:11:21;26.77;;;10.82;;
75488;SDS011;64069;46.396;48.102;2023-09-12T03:13:47;30.95;;;11.45;;
75488;SDS011;64069;46.396;48.102;2023-09-12T03:16:13;25.27;;;10.75;;
75488;SDS011;64069;46.396;48.102;2023-09-12T03:18:40;28.88;;;10.82;;
75488;SDS011;64069;46.396;48.102;2023-09-12T03:21:06;26.20;;;10.85;;
75488;SDS011;64069;46.396;48.102;2023-09-12T03:23:32;23.88;;;10.18;;
75488;SDS011;64069;46.396;48.102;2023-09-12T03:26:02;17.15;;;7.80;;
75488;SDS011;64069;46.396;48.102;2023-09-12T03:28:30;17.88;;;6.88;;
75488;SDS011;64069;46.396;48.102;2023-09-12T03:31:12;18.73;;;6.18;;
75488;SDS011;64069;46.396;48.102;2023-09-12T03:33:40;12.23;;;5.85;;
75488;SDS011;64069;46.396;48.102;2023-09-12T03:36:07;16.10;;;6.20;;
75488;SDS011;64069;46.396;48.102;2023-09-12T03:38:34;16.40;;;5.32;;
75488;SDS011;64069;46.396;48.102;2023-09-12T03:41:00;15.93;;;5.22;;
75488;SDS011;64069;46.396;48.102;2023-09-12T03:43:27;18.17;;;5.05;;
75488;SDS011;64069;46.396;48.102;2023-09-12T03:45:54;22.70;;;6.00;;
75488;SDS011;64069;46.396;48.102;2023-09-12T03:48:20;13.90;;;4.82;;
75488;SDS011;64069;46.396;48.102;2023-09-12T03:50:46;17.90;;;4.88;;
75488;SDS011;64069;46.396;48.102;2023-09-12T03:53:14;10.05;;;3.92;;
75488;SDS011;64069;46.396;48.102;2023-09-12T03:55:40;10.45;;;4.00;;
75488;SDS011;64069;46.396;48.102;2023-09-12T03:58:06;8.30;;;4.07;;
75488;SDS011;64069;46.396;48.102;2023-09-12T04:00:32;9.85;;;4.40;;
75488;SDS011;64069;46.396;48.102;2023-09-12T04:02:58;12.88;;;5.43;;
75488;SDS011;64069;46.396;48.102;2023-09-12T04:05:25;8.50;;;4.60;;
75488;SDS011;64069;46.396;48.102;2023-09-12T04:07:52;11.18;;;4.13;;
75488;SDS011;64069;46.396;48.102;2023-09-12T04:10:19;14.00;;;5.13;;
75488;SDS011;64069;46.396;48.102;2023-09-12T04:12:46;15.23;;;4.97;;
75488;SDS011;64069;46.396;48.102;2023-09-12T04:15:12;9.10;;;3.65;;
75488;SDS011;64069;46.396;48.102;2023-09-12T04:17:38;11.52;;;3.95;;
75488;SDS011;64069;46.396;48.102;2023-09-12T04:20:06;8.32;;;4.38;;
75488;SDS011;64069;46.396;48.102;2023-09-12T04:22:32;8.00;;;4.93;;
75488;SDS011;64069;46.396;48.102;2023-09-12T04:24:59;11.48;;;4.13;;
75488;SDS011;64069;46.396;48.102;2023-09-12T04:27:25;9.25;;;5.45;;
75488;SDS011;64069;46.396;48.102;2023-09-12T04:29:51;10.50;;;4.20;;
75488;SDS011;64069;46.396;48.102;2023-09-12T04:32:22;6.90;;;3.72;;
75488;SDS011;64069;46.396;48.102;2023-09-12T04:34:49;8.25;;;4.43;;
75488;SDS011;64069;46.396;48.102;2023-09-12T04:37:16;7.10;;;4.30;;
75488;SDS011;64069;46.396;48.102;2023-09-12T04:39:42;7.35;;;3.97;;
75488;SDS011;64069;46.396;48.102;2023-09-12T04:42:08;8.13;;;4.13;;
75488;SDS011;64069;46.396;48.102;2023-09-12T04:44:34;6.43;;;3.53;;
75488;SDS011;64069;46.396;48.102;2023-09-12T04:47:09;10.88;;;3.92;;
75488;SDS011;64069;46.396;48.102;2023-09-12T04:49:35;11.02;;;4.88;;
75488;SDS011;64069;46.396;48.102;2023-09-12T04:52:02;20.33;;;5.25;;
75488;SDS011;64069;46.396;48.102;2023-09-12T04:54:28;11.40;;;5.22;;
75488;SDS011;64069;46.396;48.102;2023-09-12T04:56:54;11.50;;;4.40;;
75488;SDS011;64069;46.396;48.102;2023-09-12T04:59:20;10.90;;;6.07;;
75488;SDS011;64069;46.396;48.102;2023-09-12T05:01:46;15.23;;;6.68;;
75488;SDS011;64069;46.396;48.102;2023-09-12T05:04:12;9.77;;;4.90;;
75488;SDS011;64069;46.396;48.102;2023-09-12T05:06:38;9.15;;;4.43;;
75488;SDS011;64069;46.396;48.102;2023-09-12T05:09:05;10.68;;;4.65;;
75488;SDS011;64069;46.396;48.102;2023-09-12T05:11:34;10.75;;;4.47;;
75488;SDS011;64069;46.396;48.102;2023-09-12T05:14:03;10.63;;;4.47;;
75488;SDS011;64069;46.396;48.102;2023-09-12T05:16:29;9.60;;;3.88;;
75488;SDS011;64069;46.396;48.102;2023-09-12T05:18:55;9.82;;;5.00;;
75488;SDS011;64069;46.396;48.102;2023-09-12T05:21:21;11.73;;;4.07;;
75488;SDS011;64069;46.396;48.102;2023-09-12T05:23:47;17.30;;;5.43;;
75488;SDS011;64069;46.396;48.102;2023-09-12T05:26:13;14.98;;;5.13;;
75488;SDS011;64069;46.396;48.102;2023-09-12T05:28:39;24.27;;;4.93;;
75488;SDS011;64069;46.396;48.102;2023-09-12T05:31:06;15.15;;;4.25;;
75488;SDS011;64069;46.396;48.102;2023-09-12T05:33:34;14.13;;;5.40;;
75488;SDS011;64069;46.396;48.102;2023-09-12T05:36:00;8.32;;;4.07;;
75488;SDS011;64069;46.396;48.102;2023-09-12T05:38:27;12.57;;;3.95;;
75488;SDS011;64069;46.396;48.102;2023-09-12T05:40:53;16.02;;;4.25;;
75488;SDS011;64069;46.396;48.102;2023-09-12T05:43:24;8.73;;;4.23;;
75488;SDS011;64069;46.396;48.102;2023-09-12T05:45:50;11.30;;;4.38;;
75488;SDS011;64069;46.396;48.102;2023-09-12T05:48:16;11.32;;;3.92;;
75488;SDS011;64069;46.396;48.102;2023-09-12T05:50:42;7.55;;;4.00;;
75488;SDS011;64069;46.396;48.102;2023-09-12T05:53:08;7.60;;;4.10;;
75488;SDS011;64069;46.396;48.102;2023-09-12T05:55:34;9.38;;;4.70;;
75488;SDS011;64069;46.396;48.102;2023-09-12T05:58:01;12.02;;;4.90;;
75488;SDS011;64069;46.396;48.102;2023-09-12T06:00:29;12.55;;;4.70;;
75488;SDS011;64069;46.396;48.102;2023-09-12T06:02:54;11.48;;;4.90;;
75488;SDS011;64069;46.396;48.102;2023-09-12T06:05:21;10.77;;;5.00;;
75488;SDS011;64069;46.396;48.102;2023-09-12T06:07:46;6.85;;;4.00;;
75488;SDS011;64069;46.396;48.102;2023-09-12T06:10:12;10.27;;;4.07;;
75488;SDS011;64069;46.396;48.102;2023-09-12T06:12:38;7.97;;;3.95;;
75488;SDS011;64069;46.396;48.102;2023-09-12T06:15:04;9.50;;;4.15;;
75488;SDS011;64069;46.396;48.102;2023-09-12T06:17:31;7.28;;;3.60;;
75488;SDS011;64069;46.396;48.102;2023-09-12T06:19:57;8.80;;;3.55;;
75488;SDS011;64069;46.396;48.102;2023-09-12T06:22:23;7.85;;;3.63;;
75488;SDS011;64069;46.396;48.102;2023-09-12T06:24:50;6.20;;;3.42;;
75488;SDS011;64069;46.396;48.102;2023-09-12T06:27:16;11.88;;;3.40;;
75488;SDS011;64069;46.396;48.102;2023-09-12T06:29:47;6.63;;;3.60;;
75488;SDS011;64069;46.396;48.102;2023-09-12T06:32:16;7.47;;;3.20;;
75488;SDS011;64069;46.396;48.102;2023-09-12T06:34:43;7.78;;;3.33;;
75488;SDS011;64069;46.396;48.102;2023-09-12T06:37:10;9.68;;;3.53;;
75488;SDS011;64069;46.396;48.102;2023-09-12T06:39:36;10.23;;;3.80;;
75488;SDS011;64069;46.396;48.102;2023-09-12T06:42:03;9.60;;;3.95;;
75488;SDS011;64069;46.396;48.102;2023-09-12T06:44:29;9.65;;;3.92;;
75488;SDS011;64069;46.396;48.102;2023-09-12T06:46:55;7.47;;;3.40;;
75488;SDS011;64069;46.396;48.102;2023-09-12T06:49:21;9.15;;;4.22;;
75488;SDS011;64069;46.396;48.102;2023-09-12T06:51:47;6.32;;;3.35;;
75488;SDS011;64069;46.396;48.102;2023-09-12T06:54:13;10.38;;;4.00;;
75488;SDS011;64069;46.396;48.102;2023-09-12T06:56:40;12.32;;;4.70;;
75488;SDS011;64069;46.396;48.102;2023-09-12T06:59:08;11.82;;;4.25;;
75488;SDS011;64069;46.396;48.102;2023-09-12T07:01:34;14.65;;;4.95;;
75488;SDS011;64069;46.396;48.102;2023-09-12T07:04:00;12.77;;;3.88;;
75488;SDS011;64069;46.396;48.102;2023-09-12T07:06:26;7.72;;;3.40;;
75488;SDS011;64069;46.396;48.102;2023-09-12T07:08:52;11.05;;;3.60;;
75488;SDS011;64069;46.396;48.102;2023-09-12T07:11:18;8.15;;;3.53;;
75488;SDS011;64069;46.396;48.102;2023-09-12T07:13:44;13.68;;;4.07;;
75488;SDS011;64069;46.396;48.102;2023-09-12T07:16:11;7.93;;;3.92;;
75488;SDS011;64069;46.396;48.102;2023-09-12T07:18:37;8.23;;;4.40;;
75488;SDS011;64069;46.396;48.102;2023-09-12T07:21:04;8.90;;;3.75;;
75488;SDS011;64069;46.396;48.102;2023-09-12T07:23:31;11.82;;;3.63;;
75488;SDS011;64069;46.396;48.102;2023-09-12T07:25:57;12.40;;;4.18;;
75488;SDS011;64069;46.396;48.102;2023-09-12T07:28:24;15.20;;;4.50;;
75488;SDS011;64069;46.396;48.102;2023-09-12T07:30:50;14.32;;;4.10;;
75488;SDS011;64069;46.396;48.102;2023-09-12T07:33:16;11.48;;;3.60;;
75488;SDS011;64069;46.396;48.102;2023-09-12T07:35:42;40.22;;;8.38;;
75488;SDS011;64069;46.396;48.102;2023-09-12T07:38:08;17.15;;;4.45;;
75488;SDS011;64069;46.396;48.102;2023-09-12T07:40:34;8.68;;;4.00;;
75488;SDS011;64069;46.396;48.102;2023-09-12T07:43:00;8.05;;;3.78;;
75488;SDS011;64069;46.396;48.102;2023-09-12T07:45:26;10.52;;;4.00;;
75488;SDS011;64069;46.396;48.102;2023-09-12T07:47:53;12.90;;;4.68;;
75488;SDS011;64069;46.396;48.102;2023-09-12T07:50:19;7.60;;;3.78;;
75488;SDS011;64069;46.396;48.102;2023-09-12T07:52:45;12.70;;;4.10;;
75488;SDS011;64069;46.396;48.102;2023-09-12T07:55:10;7.15;;;3.42;;
75488;SDS011;64069;46.396;48.102;2023-09-12T07:57:36;5.95;;;3.03;;
75488;SDS011;64069;46.396;48.102;2023-09-12T08:00:03;7.88;;;3.00;;
75488;SDS011;64069;46.396;48.102;2023-09-12T08:02:38;6.53;;;3.15;;
75488;SDS011;64069;46.396;48.102;2023-09-12T08:05:05;5.13;;;2.72;;
75488;SDS011;64069;46.396;48.102;2023-09-12T08:07:31;7.05;;;3.20;;
75488;SDS011;64069;46.396;48.102;2023-09-12T08:09:58;5.72;;;3.17;;
75488;SDS011;64069;46.396;48.102;2023-09-12T08:12:25;7.70;;;3.38;;
75488;SDS011;64069;46.396;48.102;2023-09-12T08:14:52;5.88;;;3.17;;
75488;SDS011;64069;46.396;48.102;2023-09-12T08:17:19;8.65;;;3.00;;
75488;SDS011;64069;46.396;48.102;2023-09-12T08:19:46;6.28;;;3.25;;
75488;SDS011;64069;46.396;48.102;2023-09-12T08:22:12;7.10;;;3.30;;
75488;SDS011;64069;46.396;48.102;2023-09-12T08:24:38;7.07;;;3.20;;
75488;SDS011;64069;46.396;48.102;2023-09-12T08:27:05;8.02;;;3.22;;
75488;SDS011;64069;46.396;48.102;2023-09-12T08:29:31;9.27;;;3.58;;
75488;SDS011;64069;46.396;48.102;2023-09-12T08:31:58;7.20;;;2.90;;
75488;SDS011;64069;46.396;48.102;2023-09-12T08:34:24;7.93;;;3.10;;
75488;SDS011;64069;46.396;48.102;2023-09-12T08:36:50;8.18;;;3.00;;
75488;SDS011;64069;46.396;48.102;2023-09-12T08:39:17;10.20;;;3.20;;
75488;SDS011;64069;46.396;48.102;2023-09-12T08:41:49;11.00;;;3.45;;
75488;SDS011;64069;46.396;48.102;2023-09-12T08:44:15;6.47;;;2.53;;
75488;SDS011;64069;46.396;48.102;2023-09-12T08:46:41;10.88;;;2.97;;
75488;SDS011;64069;46.396;48.102;2023-09-12T08:49:08;4.35;;;2.45;;
75488;SDS011;64069;46.396;48.102;2023-09-12T08:51:41;6.32;;;2.85;;
75488;SDS011;64069;46.396;48.102;2023-09-12T08:54:07;4.88;;;2.83;;
75488;SDS011;64069;46.396;48.102;2023-09-12T08:56:39;4.45;;;2.58;;
75488;SDS011;64069;46.396;48.102;2023-09-12T08:59:07;4.97;;;2.67;;
75488;SDS011;64069;46.396;48.102;2023-09-12T09:01:35;11.55;;;3.28;;
75488;SDS011;64069;46.396;48.102;2023-09-12T09:04:02;6.20;;;2.80;;
75488;SDS011;64069;46.396;48.102;2023-09-12T09:06:30;15.68;;;3.30;;
75488;SDS011;64069;46.396;48.102;2023-09-12T09:09:04;8.13;;;2.50;;
75488;SDS011;64069;46.396;48.102;2023-09-12T09:11:32;4.57;;;2.40;;
75488;SDS011;64069;46.396;48.102;2023-09-12T09:13:57;9.02;;;2.58;;
75488;SDS011;64069;46.396;48.102;2023-09-12T09:16:23;6.65;;;2.75;;
75488;SDS011;64069;46.396;48.102;2023-09-12T09:18:53;21.35;;;3.40;;
75488;SDS011;64069;46.396;48.102;2023-09-12T09:21:22;5.20;;;2.70;;
75488;SDS011;64069;46.396;48.102;2023-09-12T09:23:52;4.57;;;2.33;;
75488;SDS011;64069;46.396;48.102;2023-09-12T09:26:19;8.88;;;2.60;;
75488;SDS011;64069;46.396;48.102;2023-09-12T09:28:46;9.13;;;2.70;;
75488;SDS011;64069;46.396;48.102;2023-09-12T09:31:29;11.05;;;2.30;;
75488;SDS011;64069;46.396;48.102;2023-09-12T09:33:58;7.03;;;2.95;;
75488;SDS011;64069;46.396;48.102;2023-09-12T09:36:24;3.95;;;2.22;;
75488;SDS011;64069;46.396;48.102;2023-09-12T09:38:51;7.30;;;2.40;;
75488;SDS011;64069;46.396;48.102;2023-09-12T09:41:20;5.85;;;3.03;;
75488;SDS011;64069;46.396;48.102;2023-09-12T09:43:50;5.80;;;2.40;;
75488;SDS011;64069;46.396;48.102;2023-09-12T09:46:17;4.50;;;2.50;;
75488;SDS011;64069;46.396;48.102;2023-09-12T09:48:50;5.43;;;2.95;;
75488;SDS011;64069;46.396;48.102;2023-09-12T09:51:17;4.30;;;2.40;;
75488;SDS011;64069;46.396;48.102;2023-09-12T09:53:44;9.80;;;2.58;;
75488;SDS011;64069;46.396;48.102;2023-09-12T09:56:11;4.75;;;2.53;;
75488;SDS011;64069;46.396;48.102;2023-09-12T09:58:47;5.38;;;2.50;;
75488;SDS011;64069;46.396;48.102;2023-09-12T10:01:17;5.15;;;2.65;;
75488;SDS011;64069;46.396;48.102;2023-09-12T10:03:46;8.82;;;2.92;;
75488;SDS011;64069;46.396;48.102;2023-09-12T10:06:18;6.47;;;2.70;;
75488;SDS011;64069;46.396;48.102;2023-09-12T10:08:45;12.68;;;2.47;;
75488;SDS011;64069;46.396;48.102;2023-09-12T10:11:17;8.65;;;2.67;;
75488;SDS011;64069;46.396;48.102;2023-09-12T10:13:46;19.70;;;3.45;;
75488;SDS011;64069;46.396;48.102;2023-09-12T10:16:15;9.93;;;2.70;;
75488;SDS011;64069;46.396;48.102;2023-09-12T10:18:57;9.38;;;3.42;;
75488;SDS011;64069;46.396;48.102;2023-09-12T10:21:33;3.58;;;2.28;;
75488;SDS011;64069;46.396;48.102;2023-09-12T10:24:00;5.18;;;2.78;;
75488;SDS011;64069;46.396;48.102;2023-09-12T10:26:30;4.65;;;2.40;;
75488;SDS011;64069;46.396;48.102;2023-09-12T10:28:57;10.88;;;2.95;;
75488;SDS011;64069;46.396;48.102;2023-09-12T10:31:26;7.93;;;2.97;;
75488;SDS011;64069;46.396;48.102;2023-09-12T10:33:52;7.88;;;2.85;;
75488;SDS011;64069;46.396;48.102;2023-09-12T10:36:19;7.85;;;2.78;;
75488;SDS011;64069;46.396;48.102;2023-09-12T10:38:47;5.45;;;2.72;;
75488;SDS011;64069;46.396;48.102;2023-09-12T10:41:14;14.00;;;3.65;;
75488;SDS011;64069;46.396;48.102;2023-09-12T10:43:42;17.42;;;4.15;;
75488;SDS011;64069;46.396;48.102;2023-09-12T10:46:13;9.82;;;3.55;;
75488;SDS011;64069;46.396;48.102;2023-09-12T10:48:39;17.25;;;3.80;;
75488;SDS011;64069;46.396;48.102;2023-09-12T10:51:08;16.80;;;4.75;;
75488;SDS011;64069;46.396;48.102;2023-09-12T10:53:35;10.82;;;3.47;;
75488;SDS011;64069;46.396;48.102;2023-09-12T10:56:17;10.27;;;3.58;;
75488;SDS011;64069;46.396;48.102;2023-09-12T11:01:35;6.53;;;3.25;;
75488;SDS011;64069;46.396;48.102;2023-09-12T11:06:53;6.38;;;3.72;;
75488;SDS011;64069;46.396;48.102;2023-09-12T11:11:54;8.45;;;3.38;;
75488;SDS011;64069;46.396;48.102;2023-09-12T11:14:29;9.60;;;4.35;;
75488;SDS011;64069;46.396;48.102;2023-09-12T11:19:46;9.32;;;3.40;;
75488;SDS011;64069;46.396;48.102;2023-09-12T11:22:35;8.20;;;3.33;;
75488;SDS011;64069;46.396;48.102;2023-09-12T11:25:05;8.05;;;3.80;;
75488;SDS011;64069;46.396;48.102;2023-09-12T11:30:20;5.60;;;2.97;;
75488;SDS011;64069;46.396;48.102;2023-09-12T11:32:48;6.75;;;3.33;;
75488;SDS011;64069;46.396;48.102;2023-09-12T11:35:15;8.80;;;4.22;;
75488;SDS011;64069;46.396;48.102;2023-09-12T11:37:51;6.72;;;3.28;;
75488;SDS011;64069;46.396;48.102;2023-09-12T11:40:22;5.85;;;3.10;;
75488;SDS011;64069;46.396;48.102;2023-09-12T11:43:06;6.07;;;3.30;;
75488;SDS011;64069;46.396;48.102;2023-09-12T11:45:44;5.78;;;3.22;;
75488;SDS011;64069;46.396;48.102;2023-09-12T11:48:10;7.47;;;2.85;;
75488;SDS011;64069;46.396;48.102;2023-09-12T11:50:36;5.43;;;2.45;;
75488;SDS011;64069;46.396;48.102;2023-09-12T11:53:08;5.50;;;3.00;;
75488;SDS011;64069;46.396;48.102;2023-09-12T11:55:36;7.20;;;3.38;;
75488;SDS011;64069;46.396;48.102;2023-09-12T11:58:03;6.15;;;2.65;;
75488;SDS011;64069;46.396;48.102;2023-09-12T12:00:29;6.05;;;2.88;;
75488;SDS011;64069;46.396;48.102;2023-09-12T12:02:55;5.57;;;3.22;;
75488;SDS011;64069;46.396;48.102;2023-09-12T12:05:21;4.47;;;2.60;;
75488;SDS011;64069;46.396;48.102;2023-09-12T12:07:48;5.03;;;2.50;;
75488;SDS011;64069;46.396;48.102;2023-09-12T12:10:18;6.60;;;3.00;;
75488;SDS011;64069;46.396;48.102;2023-09-12T12:12:44;6.20;;;3.00;;
75488;SDS011;64069;46.396;48.102;2023-09-12T12:15:13;5.32;;;3.13;;
75488;SDS011;64069;46.396;48.102;2023-09-12T12:17:42;7.00;;;3.22;;
75488;SDS011;64069;46.396;48.102;2023-09-12T12:20:09;6.35;;;3.10;;
75488;SDS011;64069;46.396;48.102;2023-09-12T12:22:36;4.90;;;2.75;;
75488;SDS011;64069;46.396;48.102;2023-09-12T12:25:09;6.35;;;3.13;;
75488;SDS011;64069;46.396;48.102;2023-09-12T12:27:37;14.82;;;2.80;;
75488;SDS011;64069;46.396;48.102;2023-09-12T12:30:04;5.45;;;3.28;;
75488;SDS011;64069;46.396;48.102;2023-09-12T12:32:36;7.47;;;3.30;;
75488;SDS011;64069;46.396;48.102;2023-09-12T12:35:18;9.63;;;2.97;;
75488;SDS011;64069;46.396;48.102;2023-09-12T12:37:45;7.70;;;3.20;;
75488;SDS011;64069;46.396;48.102;2023-09-12T12:40:14;6.10;;;2.90;;
75488;SDS011;64069;46.396;48.102;2023-09-12T12:42:40;7.57;;;2.70;;
75488;SDS011;64069;46.396;48.102;2023-09-12T12:45:11;5.90;;;2.97;;
75488;SDS011;64069;46.396;48.102;2023-09-12T12:47:41;5.15;;;3.10;;
75488;SDS011;64069;46.396;48.102;2023-09-12T12:50:10;6.25;;;3.05;;
75488;SDS011;64069;46.396;48.102;2023-09-12T12:52:39;5.53;;;2.75;;
75488;SDS011;64069;46.396;48.102;2023-09-12T12:55:09;4.65;;;2.72;;
75488;SDS011;64069;46.396;48.102;2023-09-12T12:57:40;7.53;;;2.95;;
75488;SDS011;64069;46.396;48.102;2023-09-12T13:02:38;5.93;;;2.80;;
75488;SDS011;64069;46.396;48.102;2023-09-12T13:05:04;8.82;;;2.83;;
75488;SDS011;64069;46.396;48.102;2023-09-12T13:07:34;6.85;;;2.83;;
75488;SDS011;64069;46.396;48.102;2023-09-12T13:10:01;4.90;;;2.67;;
75488;SDS011;64069;46.396;48.102;2023-09-12T13:12:31;5.87;;;2.60;;
75488;SDS011;64069;46.396;48.102;2023-09-12T13:14:57;6.15;;;2.90;;
75488;SDS011;64069;46.396;48.102;2023-09-12T13:17:23;6.35;;;3.20;;
75488;SDS011;64069;46.396;48.102;2023-09-12T13:19:49;5.72;;;3.28;;
75488;SDS011;64069;46.396;48.102;2023-09-12T13:22:15;8.38;;;3.53;;
75488;SDS011;64069;46.396;48.102;2023-09-12T13:24:41;7.18;;;3.42;;
75488;SDS011;64069;46.396;48.102;2023-09-12T13:27:07;9.02;;;3.63;;
75488;SDS011;64069;46.396;48.102;2023-09-12T13:29:33;8.80;;;3.88;;
75488;SDS011;64069;46.396;48.102;2023-09-12T13:31:58;6.82;;;3.15;;
75488;SDS011;64069;46.396;48.102;2023-09-12T13:34:24;9.98;;;3.58;;
75488;SDS011;64069;46.396;48.102;2023-09-12T13:36:50;10.60;;;3.70;;
75488;SDS011;64069;46.396;48.102;2023-09-12T13:39:16;6.75;;;4.00;;
75488;SDS011;64069;46.396;48.102;2023-09-12T13:41:43;13.60;;;5.15;;
75488;SDS011;64069;46.396;48.102;2023-09-12T13:44:10;13.25;;;5.75;;
75488;SDS011;64069;46.396;48.102;2023-09-12T13:46:36;9.38;;;4.82;;
75488;SDS011;64069;46.396;48.102;2023-09-12T13:49:02;10.15;;;4.50;;
75488;SDS011;64069;46.396;48.102;2023-09-12T13:51:29;12.93;;;5.20;;
75488;SDS011;64069;46.396;48.102;2023-09-12T13:53:55;20.73;;;6.18;;
75488;SDS011;64069;46.396;48.102;2023-09-12T13:56:21;15.57;;;5.68;;
75488;SDS011;64069;46.396;48.102;2023-09-12T13:58:47;16.67;;;4.97;;
75488;SDS011;64069;46.396;48.102;2023-09-12T14:01:13;11.75;;;4.95;;
75488;SDS011;64069;46.396;48.102;2023-09-12T14:03:39;14.50;;;4.38;;
75488;SDS011;64069;46.396;48.102;2023-09-12T14:06:05;8.40;;;3.65;;
75488;SDS011;64069;46.396;48.102;2023-09-12T14:08:31;10.35;;;4.53;;
75488;SDS011;64069;46.396;48.102;2023-09-12T14:10:57;9.27;;;3.88;;
75488;SDS011;64069;46.396;48.102;2023-09-12T14:13:23;7.53;;;3.42;;
75488;SDS011;64069;46.396;48.102;2023-09-12T14:15:48;17.70;;;4.32;;
75488;SDS011;64069;46.396;48.102;2023-09-12T14:18:17;19.88;;;7.75;;
75488;SDS011;64069;46.396;48.102;2023-09-12T14:20:43;14.88;;;7.30;;
75488;SDS011;64069;46.396;48.102;2023-09-12T14:23:09;49.70;;;9.25;;
75488;SDS011;64069;46.396;48.102;2023-09-12T14:25:35;15.02;;;5.80;;
75488;SDS011;64069;46.396;48.102;2023-09-12T14:28:01;18.88;;;6.00;;
75488;SDS011;64069;46.396;48.102;2023-09-12T14:30:30;20.55;;;6.88;;
75488;SDS011;64069;46.396;48.102;2023-09-12T14:33:03;11.75;;;5.78;;
75488;SDS011;64069;46.396;48.102;2023-09-12T14:35:29;12.52;;;5.65;;
75488;SDS011;64069;46.396;48.102;2023-09-12T14:37:55;17.95;;;7.55;;
75488;SDS011;64069;46.396;48.102;2023-09-12T14:40:21;21.00;;;8.90;;
75488;SDS011;64069;46.396;48.102;2023-09-12T14:42:48;18.98;;;8.40;;
75488;SDS011;64069;46.396;48.102;2023-09-12T14:45:14;20.05;;;9.35;;
75488;SDS011;64069;46.396;48.102;2023-09-12T14:47:41;20.63;;;10.38;;
75488;SDS011;64069;46.396;48.102;2023-09-12T14:50:07;22.20;;;11.60;;